Terminal Aerodrome Forecast
Issued by NWS

Home | Current Version | Previous Version | Graphics & Text | Print | Product List | Glossary On
Versions: 1 2 3 4 5 6 7 8 9 10 11 12 13 14 15 16 17 18 19 20 21 22 23 24 25 26 27 28 29 30 31 32 33 34 35 36 37 38 39 40 41 42 43 44 45 46 47 48 49 50
862
FTUS43 KLOT 240903 AAA
TAFGYY
TAF AMD
KGYY 240903Z 2409/2506 18008KT P6SM FEW045 OVC150 WS015/21050KT
     FM241400 21016G24KT P6SM BKN250
     FM241700 21020G30KT P6SM FEW035 SCT250
     FM242200 20013G21KT P6SM BKN040
     FM250300 06010KT 3SM BR VCSH SCT008 BKN025
     FM250500 05007KT 2SM -RA BR SCT004 OVC007=

USA.gov is the U.S. government's official web portal to all federal, state and local government web resources and services.